• Join FlightAware (Why Join?)
  • Login
  • US Flag 
01:58AM EDT


 

Airport Tracker/Info


-or-


 

Live Flight TrackerFlight Track Log ✈ G52652 ✈ 28-May-2014 ✈ ZGNN / NNG - ZUCK / CKG

Flight Track Log - Related Links

Times and Time Zones

All times are in EDT time to prevent confusion due to time zone crossing. See the G52652 flight status page for this flight to view local times or setup timezone preferences in your user account.

Time Position Orientation Groundspeed Altitude Reporting Facility
EDT Latitude Longitude Course Direction KTS MPH feet Rate Location/Type
03:29AM 23.4844 107.9935 349° North  Level Estimated
03:30AM 23.5939 107.9710 349° North  Level Estimated
03:31AM 23.7034 107.9484 349° North  Level Estimated
03:32AM 23.8129 107.9258 349° North  Level Estimated
03:33AM 23.9224 107.9031 349° North  Level Estimated
03:34AM 24.0319 107.8804 349° North  Level Estimated
03:35AM 24.1414 107.8577 349° North  Level Estimated
03:36AM 24.2509 107.8350 349° North  Level Estimated
03:37AM 24.3603 107.8122 349° North  Level Estimated
03:38AM 24.4698 107.7893 349° North  Level Estimated
03:39AM 24.5793 107.7664 349° North  Level Estimated
03:40AM 24.6888 107.7435 349° North  Level Estimated
03:41AM 24.7982 107.7206 349° North  Level Estimated
03:42AM 24.9077 107.6975 349° North  Level Estimated
03:43AM 25.0172 107.6745 349° North  Level Estimated
03:44AM 25.1266 107.6514 349° North  Level Estimated
03:45AM 25.2361 107.6283 349° North  Level Estimated
03:46AM 25.3455 107.6051 349° North  Level Estimated
03:47AM 25.4550 107.5819 349° North  Level Estimated
03:48AM 25.5644 107.5587 349° North  Level Estimated
03:49AM 25.6738 107.5354 349° North  Level Estimated
03:50AM 25.7833 107.5120 349° North  Level Estimated
03:51AM 25.8927 107.4886 349° North  Level Estimated
03:52AM 26.0021 107.4652 349° North  Level Estimated
03:53AM 26.1115 107.4418 349° North  Level Estimated
03:54AM 26.2210 107.4183 349° North  Level Estimated
03:55AM 26.3304 107.3947 349° North  Level Estimated
03:56AM 26.4398 107.3711 349° North  Level Estimated
03:57AM 26.5492 107.3475 349° North  Level Estimated
03:58AM 26.6586 107.3238 349° North  Level Estimated
03:59AM 26.7680 107.3000 349° North  Level Estimated
04:00AM 26.8774 107.2762 349° North  Level Estimated
04:01AM 26.9868 107.2524 349° North  Level Estimated
04:02AM 27.0962 107.2285 349° North  Level Estimated
04:03AM 27.2056 107.2046 349° North  Level Estimated
04:04AM 27.3150 107.1806 349° North  Level Estimated
04:05AM 27.4243 107.1566 349° North  Level Estimated
04:06AM 27.5337 107.1326 349° North  Level Estimated
04:07AM 27.6431 107.1085 349° North  Level Estimated
04:08AM 27.7524 107.0843 349° North  Level Estimated
04:09AM 27.8618 107.0601 349° North  Level Estimated
04:10AM 27.9711 107.0358 349° North  Level Estimated
04:11AM 28.0805 107.0115 349° North  Level Estimated
04:12AM 28.1898 106.9872 349° North  Level Estimated
04:13AM 28.2992 106.9628 349° North  Level Estimated
04:14AM 28.4085 106.9383 349° North  Level Estimated
04:15AM 28.5179 106.9138 349° North  Level Estimated
04:16AM 28.6272 106.8893 349° North  Level Estimated
04:17AM 28.7365 106.8646 349° North  Level Estimated
04:18AM 28.8458 106.8400 349° North  Level Estimated
04:19AM 28.9551 106.8153 349° North  Level Estimated
04:20AM 29.0644 106.7905 349° North  Level Estimated
04:21AM 29.1737 106.7657 349° North  Level Estimated
04:22AM 29.2831 106.7408 349° North  Level Estimated
04:23AM 29.3923 106.7159 349° North  Level Estimated
04:24AM 29.5016 106.6909 349° North  Level Estimated
04:25AM 29.6109 106.6659 349° North  Level Estimated
04:26AM 29.7194 106.6410 349° North  Level Estimated
04:27AM 29.7194 106.6410 North  Level Estimated
04:28AM 29.7194 106.6410 North  Level Estimated
04:29AM 29.7194 106.6410 North  Level Estimated
04:30AM 29.7194 106.6410 North  Level Estimated
04:31AM 29.7194 106.6410 North  Level Estimated
04:32AM 29.7194 106.6410 North  Level Estimated
04:33AM 29.7194 106.6410 North  Level Estimated
04:34AM 29.7194 106.6410 North  Level Estimated
04:35AM 29.7194 106.6410 North  Level Estimated
04:36AM 29.7194 106.6410 North  Level Estimated
04:37AM 29.7194 106.6410 North  Level Estimated
04:38AM 29.7194 106.6410 North  Level Estimated
04:39AM 29.7194 106.6410 North  Level Estimated
04:40AM 29.7194 106.6410 North  Level Estimated
04:41AM 29.7194 106.6410 North  Level Estimated
04:42AM 29.7194 106.6410 North  Level Estimated